sensor_id;sensor_type;location;lat;lon;timestamp;temperature;humidity
6008;DHT22;3032;49.484;11.112;2023-03-01T00:00:53;0.30;99.90
6008;DHT22;3032;49.484;11.112;2023-03-01T00:03:19;0.40;99.90
6008;DHT22;3032;49.484;11.112;2023-03-01T00:05:45;0.40;99.90
6008;DHT22;3032;49.484;11.112;2023-03-01T00:08:11;0.30;99.90
6008;DHT22;3032;49.484;11.112;2023-03-01T00:10:37;0.40;99.90
6008;DHT22;3032;49.484;11.112;2023-03-01T00:13:02;0.50;99.90
6008;DHT22;3032;49.484;11.112;2023-03-01T00:15:31;0.60;99.90
6008;DHT22;3032;49.484;11.112;2023-03-01T00:17:56;0.70;99.90
6008;DHT22;3032;49.484;11.112;2023-03-01T00:20:22;0.70;99.90
6008;DHT22;3032;49.484;11.112;2023-03-01T00:22:48;0.50;99.90
6008;DHT22;3032;49.484;11.112;2023-03-01T00:25:13;0.40;99.90
6008;DHT22;3032;49.484;11.112;2023-03-01T00:27:39;0.30;99.90
6008;DHT22;3032;49.484;11.112;2023-03-01T00:30:05;0.20;99.90
6008;DHT22;3032;49.484;11.112;2023-03-01T00:32:30;0.10;99.90
6008;DHT22;3032;49.484;11.112;2023-03-01T00:34:56;0.10;99.90
6008;DHT22;3032;49.484;11.112;2023-03-01T00:37:23;0.00;99.90
6008;DHT22;3032;49.484;11.112;2023-03-01T00:39:48;-0.10;99.90
6008;DHT22;3032;49.484;11.112;2023-03-01T00:42:14;-0.10;99.90
6008;DHT22;3032;49.484;11.112;2023-03-01T00:44:40;-0.10;99.90
6008;DHT22;3032;49.484;11.112;2023-03-01T00:47:05;-0.10;99.90
6008;DHT22;3032;49.484;11.112;2023-03-01T00:49:31;-0.30;99.90
6008;DHT22;3032;49.484;11.112;2023-03-01T00:51:56;-0.40;99.90
6008;DHT22;3032;49.484;11.112;2023-03-01T00:54:22;-0.20;99.90
6008;DHT22;3032;49.484;11.112;2023-03-01T00:56:48;-0.30;99.90
6008;DHT22;3032;49.484;11.112;2023-03-01T00:59:13;-0.30;99.90
6008;DHT22;3032;49.484;11.112;2023-03-01T01:01:39;-0.30;99.90
6008;DHT22;3032;49.484;11.112;2023-03-01T01:04:12;-0.20;99.90
6008;DHT22;3032;49.484;11.112;2023-03-01T01:06:40;-0.30;99.90
6008;DHT22;3032;49.484;11.112;2023-03-01T01:09:08;-0.30;99.90
6008;DHT22;3032;49.484;11.112;2023-03-01T01:11:35;-0.30;99.90
6008;DHT22;3032;49.484;11.112;2023-03-01T01:14:02;-0.40;99.90
6008;DHT22;3032;49.484;11.112;2023-03-01T01:16:29;-0.40;99.90
6008;DHT22;3032;49.484;11.112;2023-03-01T01:18:56;-0.50;99.90
6008;DHT22;3032;49.484;11.112;2023-03-01T01:21:23;-0.40;99.90
6008;DHT22;3032;49.484;11.112;2023-03-01T01:23:49;-0.40;99.90
6008;DHT22;3032;49.484;11.112;2023-03-01T01:26:18;-0.50;99.90
6008;DHT22;3032;49.484;11.112;2023-03-01T01:28:45;-0.50;99.90
6008;DHT22;3032;49.484;11.112;2023-03-01T01:31:11;-0.50;99.90
6008;DHT22;3032;49.484;11.112;2023-03-01T01:33:37;-0.60;99.90
6008;DHT22;3032;49.484;11.112;2023-03-01T01:36:04;-0.50;99.90
6008;DHT22;3032;49.484;11.112;2023-03-01T01:38:29;-0.60;99.90
6008;DHT22;3032;49.484;11.112;2023-03-01T01:40:55;-0.60;99.90
6008;DHT22;3032;49.484;11.112;2023-03-01T01:43:24;-0.50;99.90
6008;DHT22;3032;49.484;11.112;2023-03-01T01:45:51;-0.40;99.90
6008;DHT22;3032;49.484;11.112;2023-03-01T01:48:23;-0.40;99.90
6008;DHT22;3032;49.484;11.112;2023-03-01T01:50:55;-0.50;99.90
6008;DHT22;3032;49.484;11.112;2023-03-01T01:53:22;-0.40;99.90
6008;DHT22;3032;49.484;11.112;2023-03-01T01:55:53;-0.40;99.90
6008;DHT22;3032;49.484;11.112;2023-03-01T01:58:20;-0.50;99.90
6008;DHT22;3032;49.484;11.112;2023-03-01T02:00:47;-0.50;99.90
6008;DHT22;3032;49.484;11.112;2023-03-01T02:03:18;-0.50;99.90
6008;DHT22;3032;49.484;11.112;2023-03-01T02:05:58;-0.60;99.90
6008;DHT22;3032;49.484;11.112;2023-03-01T02:08:28;-0.50;99.90
6008;DHT22;3032;49.484;11.112;2023-03-01T02:10:56;-0.70;99.90
6008;DHT22;3032;49.484;11.112;2023-03-01T02:13:23;-0.60;99.90
6008;DHT22;3032;49.484;11.112;2023-03-01T02:15:48;-0.60;99.90
6008;DHT22;3032;49.484;11.112;2023-03-01T02:18:17;-0.70;99.90
6008;DHT22;3032;49.484;11.112;2023-03-01T02:23:40;-0.60;99.90
6008;DHT22;3032;49.484;11.112;2023-03-01T02:29:16;-0.50;99.90
6008;DHT22;3032;49.484;11.112;2023-03-01T02:31:41;-0.60;99.90
6008;DHT22;3032;49.484;11.112;2023-03-01T02:34:13;-0.60;99.90
6008;DHT22;3032;49.484;11.112;2023-03-01T02:36:43;-0.70;99.90
6008;DHT22;3032;49.484;11.112;2023-03-01T02:39:14;-0.80;99.90
6008;DHT22;3032;49.484;11.112;2023-03-01T02:41:46;-0.80;99.90
6008;DHT22;3032;49.484;11.112;2023-03-01T02:44:13;-0.80;99.90
6008;DHT22;3032;49.484;11.112;2023-03-01T02:46:44;-0.70;99.90
6008;DHT22;3032;49.484;11.112;2023-03-01T02:49:27;-0.70;99.90
6008;DHT22;3032;49.484;11.112;2023-03-01T02:52:30;-0.80;99.90
6008;DHT22;3032;49.484;11.112;2023-03-01T02:57:31;-0.90;99.90
6008;DHT22;3032;49.484;11.112;2023-03-01T03:00:02;-0.70;99.90
6008;DHT22;3032;49.484;11.112;2023-03-01T03:02:32;-0.60;99.90
6008;DHT22;3032;49.484;11.112;2023-03-01T03:05:16;-0.60;99.90
6008;DHT22;3032;49.484;11.112;2023-03-01T03:07:44;-0.60;99.90
6008;DHT22;3032;49.484;11.112;2023-03-01T03:10:13;-0.50;99.90
6008;DHT22;3032;49.484;11.112;2023-03-01T03:12:39;-0.20;99.90
6008;DHT22;3032;49.484;11.112;2023-03-01T03:15:07;0.00;99.90
6008;DHT22;3032;49.484;11.112;2023-03-01T03:17:37;0.10;99.90
6008;DHT22;3032;49.484;11.112;2023-03-01T03:20:05;0.00;99.90
6008;DHT22;3032;49.484;11.112;2023-03-01T03:22:31;0.20;99.90
6008;DHT22;3032;49.484;11.112;2023-03-01T03:24:59;0.20;99.90
6008;DHT22;3032;49.484;11.112;2023-03-01T03:27:25;0.00;99.90
6008;DHT22;3032;49.484;11.112;2023-03-01T03:29:50;0.00;99.90
6008;DHT22;3032;49.484;11.112;2023-03-01T03:32:16;0.00;99.90
6008;DHT22;3032;49.484;11.112;2023-03-01T03:34:41;0.00;99.90
6008;DHT22;3032;49.484;11.112;2023-03-01T03:37:07;0.10;99.90
6008;DHT22;3032;49.484;11.112;2023-03-01T03:39:52;0.10;99.90
6008;DHT22;3032;49.484;11.112;2023-03-01T03:42:20;0.20;99.90
6008;DHT22;3032;49.484;11.112;2023-03-01T03:44:47;0.30;99.90
6008;DHT22;3032;49.484;11.112;2023-03-01T03:47:12;0.40;99.90
6008;DHT22;3032;49.484;11.112;2023-03-01T03:49:39;0.40;99.90
6008;DHT22;3032;49.484;11.112;2023-03-01T03:52:04;0.60;99.90
6008;DHT22;3032;49.484;11.112;2023-03-01T03:54:30;0.50;99.90
6008;DHT22;3032;49.484;11.112;2023-03-01T03:56:55;0.50;99.90
6008;DHT22;3032;49.484;11.112;2023-03-01T03:59:21;0.60;99.90
6008;DHT22;3032;49.484;11.112;2023-03-01T04:01:46;0.60;99.90
6008;DHT22;3032;49.484;11.112;2023-03-01T04:04:12;0.60;99.90
6008;DHT22;3032;49.484;11.112;2023-03-01T04:06:38;0.70;99.90
6008;DHT22;3032;49.484;11.112;2023-03-01T04:09:04;0.90;99.90
6008;DHT22;3032;49.484;11.112;2023-03-01T04:11:29;0.90;99.90
6008;DHT22;3032;49.484;11.112;2023-03-01T04:13:57;0.80;99.90
6008;DHT22;3032;49.484;11.112;2023-03-01T04:16:24;0.80;99.90
6008;DHT22;3032;49.484;11.112;2023-03-01T04:18:49;0.70;99.90
6008;DHT22;3032;49.484;11.112;2023-03-01T04:21:15;0.50;99.90
6008;DHT22;3032;49.484;11.112;2023-03-01T04:23:41;0.30;99.90
6008;DHT22;3032;49.484;11.112;2023-03-01T04:26:06;0.40;99.90
6008;DHT22;3032;49.484;11.112;2023-03-01T04:28:35;0.50;99.90
6008;DHT22;3032;49.484;11.112;2023-03-01T04:31:08;0.40;99.90
6008;DHT22;3032;49.484;11.112;2023-03-01T04:33:42;0.50;99.90
6008;DHT22;3032;49.484;11.112;2023-03-01T04:36:09;0.30;99.90
6008;DHT22;3032;49.484;11.112;2023-03-01T04:38:36;0.20;99.90
6008;DHT22;3032;49.484;11.112;2023-03-01T04:41:06;0.20;99.90
6008;DHT22;3032;49.484;11.112;2023-03-01T04:43:32;0.20;99.90
6008;DHT22;3032;49.484;11.112;2023-03-01T04:46:04;0.20;99.90
6008;DHT22;3032;49.484;11.112;2023-03-01T04:48:31;0.30;99.90
6008;DHT22;3032;49.484;11.112;2023-03-01T04:50:58;0.40;99.90
6008;DHT22;3032;49.484;11.112;2023-03-01T04:53:24;0.40;99.90
6008;DHT22;3032;49.484;11.112;2023-03-01T04:55:50;0.10;99.90
6008;DHT22;3032;49.484;11.112;2023-03-01T04:58:16;-0.20;99.90
6008;DHT22;3032;49.484;11.112;2023-03-01T05:00:42;0.00;99.90
6008;DHT22;3032;49.484;11.112;2023-03-01T05:03:08;0.30;99.90
6008;DHT22;3032;49.484;11.112;2023-03-01T05:05:36;0.50;99.90
6008;DHT22;3032;49.484;11.112;2023-03-01T05:08:07;0.40;99.90
6008;DHT22;3032;49.484;11.112;2023-03-01T05:10:35;0.30;99.90
6008;DHT22;3032;49.484;11.112;2023-03-01T05:13:02;0.30;99.90
6008;DHT22;3032;49.484;11.112;2023-03-01T05:15:29;0.30;99.90
6008;DHT22;3032;49.484;11.112;2023-03-01T05:17:56;0.30;99.90
6008;DHT22;3032;49.484;11.112;2023-03-01T05:20:25;0.50;99.90
6008;DHT22;3032;49.484;11.112;2023-03-01T05:22:52;0.60;99.90
6008;DHT22;3032;49.484;11.112;2023-03-01T05:25:18;0.50;99.90
6008;DHT22;3032;49.484;11.112;2023-03-01T05:27:43;0.50;99.90
6008;DHT22;3032;49.484;11.112;2023-03-01T05:30:09;0.60;99.90
6008;DHT22;3032;49.484;11.112;2023-03-01T05:32:49;0.60;99.90
6008;DHT22;3032;49.484;11.112;2023-03-01T05:35:16;0.60;99.90
6008;DHT22;3032;49.484;11.112;2023-03-01T05:37:44;0.60;99.90
6008;DHT22;3032;49.484;11.112;2023-03-01T05:40:15;0.70;99.90
6008;DHT22;3032;49.484;11.112;2023-03-01T05:42:46;0.70;99.90
6008;DHT22;3032;49.484;11.112;2023-03-01T05:45:12;0.70;99.90
6008;DHT22;3032;49.484;11.112;2023-03-01T05:47:43;0.80;99.90
6008;DHT22;3032;49.484;11.112;2023-03-01T05:50:11;0.80;99.90
6008;DHT22;3032;49.484;11.112;2023-03-01T05:52:36;0.80;99.90
6008;DHT22;3032;49.484;11.112;2023-03-01T05:55:02;0.80;99.90
6008;DHT22;3032;49.484;11.112;2023-03-01T05:57:28;0.80;99.90
6008;DHT22;3032;49.484;11.112;2023-03-01T05:59:54;0.70;99.90
6008;DHT22;3032;49.484;11.112;2023-03-01T06:02:20;0.70;99.90
6008;DHT22;3032;49.484;11.112;2023-03-01T06:04:45;0.70;99.90
6008;DHT22;3032;49.484;11.112;2023-03-01T06:07:11;0.60;99.90
6008;DHT22;3032;49.484;11.112;2023-03-01T06:09:36;0.70;99.90
6008;DHT22;3032;49.484;11.112;2023-03-01T06:12:02;0.80;99.90
6008;DHT22;3032;49.484;11.112;2023-03-01T06:14:27;0.80;99.90
6008;DHT22;3032;49.484;11.112;2023-03-01T06:16:53;0.90;99.90
6008;DHT22;3032;49.484;11.112;2023-03-01T06:19:18;1.00;99.90
6008;DHT22;3032;49.484;11.112;2023-03-01T06:21:44;1.10;99.90
6008;DHT22;3032;49.484;11.112;2023-03-01T06:24:10;1.10;99.90
6008;DHT22;3032;49.484;11.112;2023-03-01T06:26:35;1.20;99.90
6008;DHT22;3032;49.484;11.112;2023-03-01T06:29:01;1.30;99.90
6008;DHT22;3032;49.484;11.112;2023-03-01T06:31:26;1.70;99.90
6008;DHT22;3032;49.484;11.112;2023-03-01T06:33:52;2.70;99.90
6008;DHT22;3032;49.484;11.112;2023-03-01T06:36:17;3.80;99.90
6008;DHT22;3032;49.484;11.112;2023-03-01T06:38:44;4.70;98.50
6008;DHT22;3032;49.484;11.112;2023-03-01T06:41:10;5.80;97.00
6008;DHT22;3032;49.484;11.112;2023-03-01T06:43:35;6.40;94.40
6008;DHT22;3032;49.484;11.112;2023-03-01T06:46:04;7.10;92.60
6008;DHT22;3032;49.484;11.112;2023-03-01T06:48:30;7.60;91.70
6008;DHT22;3032;49.484;11.112;2023-03-01T06:50:58;8.10;90.00
6008;DHT22;3032;49.484;11.112;2023-03-01T06:53:26;8.20;87.40
6008;DHT22;3032;49.484;11.112;2023-03-01T06:55:58;8.80;85.30
6008;DHT22;3032;49.484;11.112;2023-03-01T06:58:25;8.90;81.90
6008;DHT22;3032;49.484;11.112;2023-03-01T07:00:51;8.80;81.60
6008;DHT22;3032;49.484;11.112;2023-03-01T07:03:18;9.30;79.50
6008;DHT22;3032;49.484;11.112;2023-03-01T07:05:44;10.20;75.50
6008;DHT22;3032;49.484;11.112;2023-03-01T07:08:10;10.50;74.30
6008;DHT22;3032;49.484;11.112;2023-03-01T07:10:35;11.20;70.90
6008;DHT22;3032;49.484;11.112;2023-03-01T07:13:01;10.60;70.20
6008;DHT22;3032;49.484;11.112;2023-03-01T07:15:27;10.60;70.50
6008;DHT22;3032;49.484;11.112;2023-03-01T07:17:53;10.20;71.50
6008;DHT22;3032;49.484;11.112;2023-03-01T07:20:19;10.50;69.60
6008;DHT22;3032;49.484;11.112;2023-03-01T07:22:50;9.80;69.80
6008;DHT22;3032;49.484;11.112;2023-03-01T07:25:15;10.10;69.50
6008;DHT22;3032;49.484;11.112;2023-03-01T07:27:41;10.30;70.20
6008;DHT22;3032;49.484;11.112;2023-03-01T07:30:07;11.30;68.60
6008;DHT22;3032;49.484;11.112;2023-03-01T07:32:33;11.60;65.20
6008;DHT22;3032;49.484;11.112;2023-03-01T07:34:59;9.90;67.90
6008;DHT22;3032;49.484;11.112;2023-03-01T07:37:25;9.90;68.10
6008;DHT22;3032;49.484;11.112;2023-03-01T07:39:50;9.30;70.60
6008;DHT22;3032;49.484;11.112;2023-03-01T07:42:16;9.20;70.00
6008;DHT22;3032;49.484;11.112;2023-03-01T07:44:41;8.90;70.60
6008;DHT22;3032;49.484;11.112;2023-03-01T07:47:07;9.40;70.00
6008;DHT22;3032;49.484;11.112;2023-03-01T07:49:32;9.30;70.90
6008;DHT22;3032;49.484;11.112;2023-03-01T07:51:58;10.40;69.40
6008;DHT22;3032;49.484;11.112;2023-03-01T07:54:24;10.40;66.80
6008;DHT22;3032;49.484;11.112;2023-03-01T07:56:49;9.20;68.90
6008;DHT22;3032;49.484;11.112;2023-03-01T07:59:15;9.70;69.60
6008;DHT22;3032;49.484;11.112;2023-03-01T08:01:40;9.10;69.50
6008;DHT22;3032;49.484;11.112;2023-03-01T08:04:08;9.10;71.70
6008;DHT22;3032;49.484;11.112;2023-03-01T08:06:35;8.80;69.70
6008;DHT22;3032;49.484;11.112;2023-03-01T08:09:01;8.20;71.30
6008;DHT22;3032;49.484;11.112;2023-03-01T08:11:26;7.40;73.20
6008;DHT22;3032;49.484;11.112;2023-03-01T08:13:53;7.60;74.90
6008;DHT22;3032;49.484;11.112;2023-03-01T08:16:19;8.00;73.90
6008;DHT22;3032;49.484;11.112;2023-03-01T08:18:44;8.60;72.60
6008;DHT22;3032;49.484;11.112;2023-03-01T08:21:15;8.30;71.60
6008;DHT22;3032;49.484;11.112;2023-03-01T08:23:41;8.70;71.20
6008;DHT22;3032;49.484;11.112;2023-03-01T08:26:13;9.70;70.20
6008;DHT22;3032;49.484;11.112;2023-03-01T08:28:39;8.50;70.00
6008;DHT22;3032;49.484;11.112;2023-03-01T08:31:15;7.40;72.30
6008;DHT22;3032;49.484;11.112;2023-03-01T08:33:41;7.40;74.90
6008;DHT22;3032;49.484;11.112;2023-03-01T08:36:07;7.00;74.00
6008;DHT22;3032;49.484;11.112;2023-03-01T08:38:34;7.00;76.40
6008;DHT22;3032;49.484;11.112;2023-03-01T08:41:00;8.30;73.80
6008;DHT22;3032;49.484;11.112;2023-03-01T08:43:26;8.50;71.90
6008;DHT22;3032;49.484;11.112;2023-03-01T08:45:52;8.40;72.20
6008;DHT22;3032;49.484;11.112;2023-03-01T08:48:17;9.10;70.80
6008;DHT22;3032;49.484;11.112;2023-03-01T08:50:43;8.60;70.00
6008;DHT22;3032;49.484;11.112;2023-03-01T08:53:08;8.20;70.40
6008;DHT22;3032;49.484;11.112;2023-03-01T08:55:34;7.80;72.50
6008;DHT22;3032;49.484;11.112;2023-03-01T08:57:59;8.70;72.30
6008;DHT22;3032;49.484;11.112;2023-03-01T09:00:25;8.60;68.50
6008;DHT22;3032;49.484;11.112;2023-03-01T09:02:50;8.00;70.80
6008;DHT22;3032;49.484;11.112;2023-03-01T09:05:16;8.50;71.30
6008;DHT22;3032;49.484;11.112;2023-03-01T09:07:41;9.10;69.30
6008;DHT22;3032;49.484;11.112;2023-03-01T09:10:08;8.50;69.50
6008;DHT22;3032;49.484;11.112;2023-03-01T09:12:33;9.20;69.10
6008;DHT22;3032;49.484;11.112;2023-03-01T09:14:59;9.50;68.90
6008;DHT22;3032;49.484;11.112;2023-03-01T09:17:25;9.70;66.60
6008;DHT22;3032;49.484;11.112;2023-03-01T09:19:50;9.50;68.00
6008;DHT22;3032;49.484;11.112;2023-03-01T09:22:16;10.60;65.40
6008;DHT22;3032;49.484;11.112;2023-03-01T09:24:41;11.50;62.80
6008;DHT22;3032;49.484;11.112;2023-03-01T09:27:07;11.50;61.70
6008;DHT22;3032;49.484;11.112;2023-03-01T09:29:36;9.00;63.80
6008;DHT22;3032;49.484;11.112;2023-03-01T09:32:01;9.50;65.50
6008;DHT22;3032;49.484;11.112;2023-03-01T09:34:27;9.70;65.70
6008;DHT22;3032;49.484;11.112;2023-03-01T09:36:52;9.80;66.00
6008;DHT22;3032;49.484;11.112;2023-03-01T09:39:19;9.30;65.80
6008;DHT22;3032;49.484;11.112;2023-03-01T09:47:21;10.60;64.90
6008;DHT22;3032;49.484;11.112;2023-03-01T09:54:58;13.30;58.80
6008;DHT22;3032;49.484;11.112;2023-03-01T09:57:49;14.10;57.30
6008;DHT22;3032;49.484;11.112;2023-03-01T10:03:08;13.20;56.00
6008;DHT22;3032;49.484;11.112;2023-03-01T10:10:48;11.80;59.60
6008;DHT22;3032;49.484;11.112;2023-03-01T10:13:26;11.80;58.30
6008;DHT22;3032;49.484;11.112;2023-03-01T10:15:56;11.20;57.20
6008;DHT22;3032;49.484;11.112;2023-03-01T10:18:27;10.20;58.50
6008;DHT22;3032;49.484;11.112;2023-03-01T10:21:02;10.10;61.00
6008;DHT22;3032;49.484;11.112;2023-03-01T10:23:31;10.90;60.00
6008;DHT22;3032;49.484;11.112;2023-03-01T10:26:24;11.80;58.30
6008;DHT22;3032;49.484;11.112;2023-03-01T10:29:10;12.40;57.50
6008;DHT22;3032;49.484;11.112;2023-03-01T10:31:51;13.40;56.70
6008;DHT22;3032;49.484;11.112;2023-03-01T10:34:38;13.70;56.20
6008;DHT22;3032;49.484;11.112;2023-03-01T10:37:13;12.30;56.70
6008;DHT22;3032;49.484;11.112;2023-03-01T10:39:55;11.00;58.50
6008;DHT22;3032;49.484;11.112;2023-03-01T10:42:33;11.60;60.20
6008;DHT22;3032;49.484;11.112;2023-03-01T10:45:16;12.60;57.20
6008;DHT22;3032;49.484;11.112;2023-03-01T10:47:42;12.10;58.50
6008;DHT22;3032;49.484;11.112;2023-03-01T10:50:20;11.90;57.00
6008;DHT22;3032;49.484;11.112;2023-03-01T10:52:58;12.00;57.00
6008;DHT22;3032;49.484;11.112;2023-03-01T11:00:57;12.90;56.70
6008;DHT22;3032;49.484;11.112;2023-03-01T11:03:38;13.20;56.70
6008;DHT22;3032;49.484;11.112;2023-03-01T11:11:17;13.90;55.40
6008;DHT22;3032;49.484;11.112;2023-03-01T11:13:54;13.90;56.60
6008;DHT22;3032;49.484;11.112;2023-03-01T11:21:28;13.00;56.20
6008;DHT22;3032;49.484;11.112;2023-03-01T11:23:58;12.80;54.20
6008;DHT22;3032;49.484;11.112;2023-03-01T11:26:25;12.60;54.60
6008;DHT22;3032;49.484;11.112;2023-03-01T11:28:53;12.10;56.40
6008;DHT22;3032;49.484;11.112;2023-03-01T11:31:22;12.50;57.00
6008;DHT22;3032;49.484;11.112;2023-03-01T11:33:59;13.70;58.20
6008;DHT22;3032;49.484;11.112;2023-03-01T11:36:49;14.10;54.20
6008;DHT22;3032;49.484;11.112;2023-03-01T11:42:00;12.60;58.30
6008;DHT22;3032;49.484;11.112;2023-03-01T11:44:30;13.90;56.10
6008;DHT22;3032;49.484;11.112;2023-03-01T12:01:33;15.50;51.80
6008;DHT22;3032;49.484;11.112;2023-03-01T12:04:46;15.90;52.00
6008;DHT22;3032;49.484;11.112;2023-03-01T12:07:33;15.90;51.20
6008;DHT22;3032;49.484;11.112;2023-03-01T12:15:58;13.10;54.00
6008;DHT22;3032;49.484;11.112;2023-03-01T12:21:28;14.30;53.60
6008;DHT22;3032;49.484;11.112;2023-03-01T12:26:41;13.10;53.30
6008;DHT22;3032;49.484;11.112;2023-03-01T12:29:23;12.80;56.30
6008;DHT22;3032;49.484;11.112;2023-03-01T12:32:34;13.20;55.30
6008;DHT22;3032;49.484;11.112;2023-03-01T12:35:36;13.10;54.90
6008;DHT22;3032;49.484;11.112;2023-03-01T12:38:32;12.90;55.70
6008;DHT22;3032;49.484;11.112;2023-03-01T12:41:09;13.00;56.40
6008;DHT22;3032;49.484;11.112;2023-03-01T12:43:52;12.50;60.00
6008;DHT22;3032;49.484;11.112;2023-03-01T12:49:17;12.80;57.60
6008;DHT22;3032;49.484;11.112;2023-03-01T12:51:51;13.10;58.10
6008;DHT22;3032;49.484;11.112;2023-03-01T12:54:39;13.20;59.60
6008;DHT22;3032;49.484;11.112;2023-03-01T12:57:29;13.70;59.40
6008;DHT22;3032;49.484;11.112;2023-03-01T13:00:26;13.70;57.60
6008;DHT22;3032;49.484;11.112;2023-03-01T13:08:58;12.90;59.50
6008;DHT22;3032;49.484;11.112;2023-03-01T13:11:28;11.90;60.50
6008;DHT22;3032;49.484;11.112;2023-03-01T13:16:49;13.40;58.60
6008;DHT22;3032;49.484;11.112;2023-03-01T13:19:17;13.60;58.00
6008;DHT22;3032;49.484;11.112;2023-03-01T13:21:44;14.20;60.20
6008;DHT22;3032;49.484;11.112;2023-03-01T13:24:33;14.30;57.50
6008;DHT22;3032;49.484;11.112;2023-03-01T13:29:49;13.90;58.40
6008;DHT22;3032;49.484;11.112;2023-03-01T13:32:26;12.60;58.30
6008;DHT22;3032;49.484;11.112;2023-03-01T13:37:42;12.50;61.00
6008;DHT22;3032;49.484;11.112;2023-03-01T13:42:48;11.70;61.80
6008;DHT22;3032;49.484;11.112;2023-03-01T13:48:08;12.50;64.60
6008;DHT22;3032;49.484;11.112;2023-03-01T13:51:11;12.40;60.10
6008;DHT22;3032;49.484;11.112;2023-03-01T13:53:33;11.50;61.20
6008;DHT22;3032;49.484;11.112;2023-03-01T13:56:03;11.60;63.90
6008;DHT22;3032;49.484;11.112;2023-03-01T13:58:33;12.10;62.50
6008;DHT22;3032;49.484;11.112;2023-03-01T14:01:31;12.60;65.90
6008;DHT22;3032;49.484;11.112;2023-03-01T14:03:57;12.80;60.30
6008;DHT22;3032;49.484;11.112;2023-03-01T14:06:28;12.70;59.80
6008;DHT22;3032;49.484;11.112;2023-03-01T14:09:05;12.00;61.10
6008;DHT22;3032;49.484;11.112;2023-03-01T14:19:43;13.40;63.10
6008;DHT22;3032;49.484;11.112;2023-03-01T14:24:44;11.80;62.20
6008;DHT22;3032;49.484;11.112;2023-03-01T14:27:12;11.20;63.50
6008;DHT22;3032;49.484;11.112;2023-03-01T14:29:39;10.90;66.80
6008;DHT22;3032;49.484;11.112;2023-03-01T14:32:24;11.70;64.80
6008;DHT22;3032;49.484;11.112;2023-03-01T14:34:51;12.50;68.10
6008;DHT22;3032;49.484;11.112;2023-03-01T14:37:20;12.90;65.90
6008;DHT22;3032;49.484;11.112;2023-03-01T14:39:47;12.40;62.60
6008;DHT22;3032;49.484;11.112;2023-03-01T14:42:13;12.40;65.10
6008;DHT22;3032;49.484;11.112;2023-03-01T14:44:45;12.70;63.30
6008;DHT22;3032;49.484;11.112;2023-03-01T14:47:18;11.80;65.90
6008;DHT22;3032;49.484;11.112;2023-03-01T14:49:45;11.30;64.60
6008;DHT22;3032;49.484;11.112;2023-03-01T14:52:20;10.90;67.30
6008;DHT22;3032;49.484;11.112;2023-03-01T14:54:50;11.50;67.30
6008;DHT22;3032;49.484;11.112;2023-03-01T14:57:26;11.40;68.00
6008;DHT22;3032;49.484;11.112;2023-03-01T14:59:54;11.40;65.90
6008;DHT22;3032;49.484;11.112;2023-03-01T15:02:25;10.50;69.80
6008;DHT22;3032;49.484;11.112;2023-03-01T15:04:58;10.60;68.60
6008;DHT22;3032;49.484;11.112;2023-03-01T15:07:35;10.30;68.10
6008;DHT22;3032;49.484;11.112;2023-03-01T15:10:03;9.70;70.90
6008;DHT22;3032;49.484;11.112;2023-03-01T15:12:42;9.40;71.20
6008;DHT22;3032;49.484;11.112;2023-03-01T15:17:56;9.50;72.10
6008;DHT22;3032;49.484;11.112;2023-03-01T15:20:24;9.40;72.50
6008;DHT22;3032;49.484;11.112;2023-03-01T15:22:55;9.40;74.10
6008;DHT22;3032;49.484;11.112;2023-03-01T15:25:26;9.40;73.90
6008;DHT22;3032;49.484;11.112;2023-03-01T15:27:54;9.50;74.00
6008;DHT22;3032;49.484;11.112;2023-03-01T15:30:30;9.60;74.00
6008;DHT22;3032;49.484;11.112;2023-03-01T15:35:59;9.30;74.00
6008;DHT22;3032;49.484;11.112;2023-03-01T15:38:33;9.20;77.30
6008;DHT22;3032;49.484;11.112;2023-03-01T15:41:01;9.20;74.80
6008;DHT22;3032;49.484;11.112;2023-03-01T15:43:45;9.70;75.80
6008;DHT22;3032;49.484;11.112;2023-03-01T15:46:30;9.10;75.10
6008;DHT22;3032;49.484;11.112;2023-03-01T15:49:02;8.80;75.90
6008;DHT22;3032;49.484;11.112;2023-03-01T15:51:34;9.10;77.80
6008;DHT22;3032;49.484;11.112;2023-03-01T15:54:06;9.30;78.50
6008;DHT22;3032;49.484;11.112;2023-03-01T15:56:32;9.20;75.80
6008;DHT22;3032;49.484;11.112;2023-03-01T15:59:00;9.10;77.50
6008;DHT22;3032;49.484;11.112;2023-03-01T16:01:26;9.10;76.60
6008;DHT22;3032;49.484;11.112;2023-03-01T16:03:51;8.70;77.30
6008;DHT22;3032;49.484;11.112;2023-03-01T16:06:17;8.60;77.70
6008;DHT22;3032;49.484;11.112;2023-03-01T16:08:42;8.40;79.00
6008;DHT22;3032;49.484;11.112;2023-03-01T16:11:16;8.40;80.10
6008;DHT22;3032;49.484;11.112;2023-03-01T16:13:42;8.60;79.40
6008;DHT22;3032;49.484;11.112;2023-03-01T16:16:10;9.00;78.10
6008;DHT22;3032;49.484;11.112;2023-03-01T16:18:43;8.70;78.60
6008;DHT22;3032;49.484;11.112;2023-03-01T16:21:18;8.60;78.80
6008;DHT22;3032;49.484;11.112;2023-03-01T16:23:45;8.60;80.10
6008;DHT22;3032;49.484;11.112;2023-03-01T16:26:11;8.60;79.50
6008;DHT22;3032;49.484;11.112;2023-03-01T16:28:39;8.50;81.20
6008;DHT22;3032;49.484;11.112;2023-03-01T16:31:05;8.50;80.10
6008;DHT22;3032;49.484;11.112;2023-03-01T16:33:31;8.40;80.30
6008;DHT22;3032;49.484;11.112;2023-03-01T16:35:56;8.30;80.00
6008;DHT22;3032;49.484;11.112;2023-03-01T16:38:22;8.30;80.00
6008;DHT22;3032;49.484;11.112;2023-03-01T16:40:49;8.40;80.20
6008;DHT22;3032;49.484;11.112;2023-03-01T16:43:15;8.30;81.30
6008;DHT22;3032;49.484;11.112;2023-03-01T16:45:41;8.60;80.40
6008;DHT22;3032;49.484;11.112;2023-03-01T16:48:10;8.60;80.40
6008;DHT22;3032;49.484;11.112;2023-03-01T16:50:35;8.60;80.60
6008;DHT22;3032;49.484;11.112;2023-03-01T16:53:01;8.60;81.10
6008;DHT22;3032;49.484;11.112;2023-03-01T16:55:27;8.50;80.10
6008;DHT22;3032;49.484;11.112;2023-03-01T16:57:53;7.90;81.80
6008;DHT22;3032;49.484;11.112;2023-03-01T17:00:19;7.80;82.40
6008;DHT22;3032;49.484;11.112;2023-03-01T17:02:44;7.70;82.40
6008;DHT22;3032;49.484;11.112;2023-03-01T17:05:10;7.90;84.20
6008;DHT22;3032;49.484;11.112;2023-03-01T17:07:39;7.60;83.40
6008;DHT22;3032;49.484;11.112;2023-03-01T17:10:07;7.30;84.60
6008;DHT22;3032;49.484;11.112;2023-03-01T17:12:36;7.30;84.80
6008;DHT22;3032;49.484;11.112;2023-03-01T17:15:04;7.30;85.90
6008;DHT22;3032;49.484;11.112;2023-03-01T17:17:30;7.20;86.40
6008;DHT22;3032;49.484;11.112;2023-03-01T17:19:55;7.30;86.40
6008;DHT22;3032;49.484;11.112;2023-03-01T17:22:21;7.50;87.10
6008;DHT22;3032;49.484;11.112;2023-03-01T17:24:53;7.50;85.40
6008;DHT22;3032;49.484;11.112;2023-03-01T17:27:19;7.30;87.50
6008;DHT22;3032;49.484;11.112;2023-03-01T17:29:44;7.10;87.40
6008;DHT22;3032;49.484;11.112;2023-03-01T17:32:10;6.90;89.70
6008;DHT22;3032;49.484;11.112;2023-03-01T17:34:36;6.80;90.00
6008;DHT22;3032;49.484;11.112;2023-03-01T17:37:02;6.80;90.10
6008;DHT22;3032;49.484;11.112;2023-03-01T17:39:27;6.80;90.50
6008;DHT22;3032;49.484;11.112;2023-03-01T17:42:00;6.80;90.20
6008;DHT22;3032;49.484;11.112;2023-03-01T17:44:26;6.80;90.00
6008;DHT22;3032;49.484;11.112;2023-03-01T17:46:52;6.80;90.40
6008;DHT22;3032;49.484;11.112;2023-03-01T17:49:17;6.80;90.60
6008;DHT22;3032;49.484;11.112;2023-03-01T17:51:43;6.90;90.40
6008;DHT22;3032;49.484;11.112;2023-03-01T17:54:09;6.60;90.80
6008;DHT22;3032;49.484;11.112;2023-03-01T17:56:35;6.50;91.60
6008;DHT22;3032;49.484;11.112;2023-03-01T17:59:03;6.70;90.70